Buoy 13570

sailwx.info

Track history (hours):
 
Tides and Currents Weather Stations Pressure Air Temp Water Temp Dewpoint Dewpoint Depression Visibility Wind Speed Wind Dir Waves Ship Positions

Drifting buoy 13570

Last reported at 2014-Oct-20 22:00 UTC. Time now 2014-Oct-21 00:44 UTC.
Position N 33°54' W 029°09'.

Barometer 1013.3 mb
Water temperature 22.4 ° C

Date/timePositionNaut miles runAvg speedWind from/ knotsBaromVisibWave heightAir tempDewpointWater temp
2014-Oct-20 22:00N 33°54' W 029°09'0 0.1 1013.3 22.4
2014-Oct-20 21:00N 33°54' W 029°09'2 2.0 1013.3 22.4
2014-Oct-20 20:00N 33°55' W 029°07'1 0.8 1013.5 22.4
2014-Oct-20 19:00N 33°56' W 029°08'0 0.0 1013.2 22.4
2014-Oct-20 18:00N 33°56' W 029°08'2 1.9 1013.5 22.4
2014-Oct-20 17:00N 33°57' W 029°06'1 1.2 1013.7 22.5
2014-Oct-20 16:00N 33°56' W 029°07'1 1.2 1013.9 22.5
2014-Oct-20 15:00N 33°57' W 029°06'0 0.2 1014.3 22.5
2014-Oct-20 13:00N 33°58' W 029°06'1 1.0 1015.8 22.5
2014-Oct-20 12:00N 33°58' W 029°05'1 0.8 1016.4 22.5
2014-Oct-20 11:00N 33°59' W 029°05'0 0.4 1016.7 22.5
2014-Oct-20 10:00N 33°58' W 029°04'0 0.0 1016.7 22.5
2014-Oct-20 09:00N 33°58' W 029°04'0 0.5 1016.8 22.5
2014-Oct-20 08:00N 33°58' W 029°04'1 0.7 1016.7 22.5
2014-Oct-20 07:00N 33°59' W 029°03'0 0.3 1016.7 22.5
2014-Oct-20 06:00N 33°59' W 029°03'0 0.2 1017.1 22.5
2014-Oct-20 05:00N 33°59' W 029°03'1 1.2 1017.1 22.5
2014-Oct-20 04:00N 33°59' W 029°01'3 0.8 1017.0 22.6
2014-Oct-20 00:00N 34°02' W 028°59'0 0.2 1018.9 22.6
2014-Oct-19 23:00N 34°02' W 028°59'1 1.1 1019.3 22.6
2014-Oct-19 22:00N 34°03' W 028°59'1 0.3 1019.4 22.6
2014-Oct-19 20:00N 34°03' W 028°58'0 0.5 1019.2 22.7
2014-Oct-19 19:00N 34°03' W 028°59'0 0.2 1019.1 22.7
2014-Oct-19 18:00N 34°03' W 028°59'0 0.0 1018.8 22.7
2014-Oct-19 17:00N 34°03' W 028°59'1 1.5 1018.8 22.7
2014-Oct-19 16:00N 34°03' W 028°57'0 0.2 1018.8 22.7
2014-Oct-19 15:00N 34°03' W 028°57'1 0.5 1019.0 22.7
2014-Oct-19 14:00N 34°04' W 028°56'0 0.2 1019.4 22.8
2014-Oct-19 13:00N 34°04' W 028°56'1 0.4 1019.9 22.7
2014-Oct-19 11:00N 34°04' W 028°55'0 0.3 1020.2 22.8
2014-Oct-19 10:00N 34°05' W 028°55'1 0.4 1020.1 22.8
2014-Oct-19 08:00N 34°05' W 028°54'1 0.5 1019.2 22.8
2014-Oct-19 07:00N 34°05' W 028°53'0 0.4 1018.7 22.8
2014-Oct-19 06:00N 34°05' W 028°53'2 0.8 1018.5 22.8
2014-Oct-19 04:00N 34°06' W 028°51'2 0.6 1018.3 22.8
2014-Oct-19 01:00N 34°08' W 028°51'0 0.0 1018.3 22.8
2014-Oct-19 00:00N 34°08' W 028°51'1 1.3 1018.5 22.8
2014-Oct-18 23:00N 34°09' W 028°51'1 1.1 1018.4 22.9
2014-Oct-18 22:00N 34°10' W 028°52'0 0.0 1018.0 22.9
2014-Oct-18 21:00N 34°10' W 028°52'2 0.8 1017.2 22.9
2014-Oct-18 19:00N 34°09' W 028°50'0 0.0 1015.7 22.9
2014-Oct-18 18:00N 34°09' W 028°50'0 0.0 1015.1 22.9
2014-Oct-18 16:00N 34°09' W 028°50'0 0.0 1014.7 22.9
2014-Oct-18 15:00N 34°09' W 028°50'1 1.0 1014.5 23.0
2014-Oct-18 14:00N 34°09' W 028°49'2 0.8 1014.3 23.0
2014-Oct-18 11:00N 34°11' W 028°47'0 0.0 1014.4 23.0
2014-Oct-18 10:00N 34°11' W 028°47'1 0.9 1014.2 23.0
2014-Oct-18 09:00N 34°12' W 028°47'1 1.3 1013.2 23.0
2014-Oct-18 08:00N 34°13' W 028°46'0 0.0 1012.5 23.0
2014-Oct-18 07:00N 34°13' W 028°46'2 1.6 1012.4 23.0
2014-Oct-18 06:00N 34°15' W 028°48'1 0.7 1012.1 23.0
2014-Oct-18 05:00N 34°15' W 028°47'2 0.3 1011.4 23.0
2014-Oct-17 23:00N 34°17' W 028°47'0 0.0 1012.3 23.1
2014-Oct-17 22:00N 34°17' W 028°47'0 0.1 1012.2 23.1
2014-Oct-17 21:00N 34°17' W 028°47'0 0.5 1011.9 23.1
2014-Oct-17 20:00N 34°17' W 028°48'0 0.2 1011.5 23.1
2014-Oct-17 18:00N 34°17' W 028°48'1 1.0 1010.8 23.1
2014-Oct-17 17:00N 34°17' W 028°47'0 0.0 1010.5 23.1
2014-Oct-17 16:00N 34°17' W 028°47'1 0.6 1010.2 23.1
2014-Oct-17 15:00N 34°17' W 028°46'2 0.7 1010.4 23.1
2014-Oct-17 12:00N 34°18' W 028°44'3 1.7 1011.3 23.1
2014-Oct-17 10:00N 34°22' W 028°45'0 0.2 1010.4 23.1
2014-Oct-17 08:00N 34°21' W 028°45'1 1.0 1009.0 23.1
2014-Oct-17 07:00N 34°22' W 028°46'2 2.0 1008.6 23.1
2014-Oct-17 06:00N 34°21' W 028°44'0 0.0 1008.3 23.1
2014-Oct-17 04:00N 34°21' W 028°44'3 1.5 1009.0 23.1
2014-Oct-17 02:00N 34°24' W 028°46'1 0.4 1010.1 23.2
2014-Oct-16 23:00N 34°24' W 028°47'2 0.5 1011.1 23.2
2014-Oct-16 19:00N 34°26' W 028°48'0 0.0 1011.5 23.2
2014-Oct-16 18:00N 34°26' W 028°48'1 0.7 1011.8 23.2
2014-Oct-16 17:00N 34°26' W 028°49'1 0.1 1012.0 23.2
2014-Oct-16 12:00N 34°27' W 028°49'1 0.9 1014.4 23.2
2014-Oct-16 11:00N 34°27' W 028°48'0 0.0 1014.3 23.2
2014-Oct-16 10:00N 34°27' W 028°48'1 1.3 1014.0 23.2
2014-Oct-16 09:00N 34°28' W 028°49'1 0.9 1013.2 23.2
2014-Oct-16 08:00N 34°29' W 028°49'0 0.0 1013.0 23.2
2014-Oct-16 07:00N 34°29' W 028°49'2 0.4 1012.5 23.2
2014-Oct-16 03:00N 34°30' W 028°50'1 0.3 1011.7 23.2
2014-Oct-15 22:00N 34°31' W 028°49'2 0.4 1010.5 23.3
2014-Oct-15 18:00N 34°33' W 028°48'0 0.1 1008.3 23.2
2014-Oct-15 16:00N 34°33' W 028°48'1 0.4 1008.2 23.2
2014-Oct-15 14:00N 34°32' W 028°49'1 0.4 1009.1 23.3
2014-Oct-15 12:00N 34°33' W 028°48'1 0.5 1010.7 23.3
2014-Oct-15 10:00N 34°34' W 028°48'0 0.0 1010.9 23.3
2014-Oct-15 09:00N 34°34' W 028°48'1 1.1 1010.7 23.4
2014-Oct-15 08:00N 34°34' W 028°46'1 0.6 1009.9 23.4
2014-Oct-15 07:00N 34°35' W 028°47'1 0.8 1009.6 23.3
2014-Oct-15 06:00N 34°36' W 028°48'1 0.3 1010.0 23.4
2014-Oct-15 03:00N 34°36' W 028°49'1 0.6 1010.8 23.4
2014-Oct-15 02:00N 34°36' W 028°49'0 0.0 1011.1 23.4
2014-Oct-15 00:00N 34°36' W 028°49'2 0.6 1012.0 23.4
2014-Oct-14 20:00N 34°38' W 028°48'0 0.0 1011.6 23.4
2014-Oct-14 18:00N 34°38' W 028°48'2 0.9 1011.1 23.4
2014-Oct-14 16:00N 34°38' W 028°50'1 0.3 1011.2 23.4
2014-Oct-14 12:00N 34°39' W 028°50'0 0.0 1013.3 23.4
2014-Oct-14 11:00N 34°39' W 028°50'1 1.0 1013.6 23.4
2014-Oct-14 10:00N 34°40' W 028°50'0 0.0 1013.4 23.4
2014-Oct-14 09:00N 34°40' W 028°50'2 0.5 1012.9 23.4
2014-Oct-14 06:00N 34°42' W 028°51'0 0.0 1013.0 23.4
2014-Oct-14 05:00N 34°42' W 028°51'3 1.5 1013.3 23.4
2014-Oct-14 03:00N 34°42' W 028°54'0 0.1 1014.2 23.4
2014-Oct-14 00:00N 34°42' W 028°54'1 1.0 1015.7 23.4
2014-Oct-13 23:00N 34°42' W 028°54'0 0.4 1016.1 23.4
2014-Oct-13 22:00N 34°42' W 028°54'2 0.5 1016.4 23.4
2014-Oct-13 17:00N 34°44' W 028°54'0 0.2 1016.0 23.5
2014-Oct-13 16:00N 34°44' W 028°54'1 1.3 1016.4 23.5
2014-Oct-13 15:00N 34°44' W 028°55'1 0.5 1016.8 23.4
2014-Oct-13 12:00N 34°45' W 028°56'0 0.3 1018.7 23.4
2014-Oct-13 11:00N 34°45' W 028°57'0 0.0 1019.1 23.4
2014-Oct-13 10:00N 34°45' W 028°57'1 0.7 1019.0 23.4
2014-Oct-13 08:00N 34°47' W 028°57'1 0.3 1018.7 23.4
2014-Oct-13 05:00N 34°48' W 028°57'2 1.0 1019.0 23.4
2014-Oct-13 03:00N 34°48' W 028°59'0 0.1 1020.3 23.4
2014-Oct-13 00:00N 34°48' W 028°59'1 1.1 1021.7 23.5
2014-Oct-12 23:00N 34°48' W 029°01'1 0.6 1021.9 23.5
2014-Oct-12 22:00N 34°48' W 029°00'1 1.4 1021.9 23.5
2014-Oct-12 21:00N 34°48' W 028°58'1 1.1 1022.0 23.5
2014-Oct-12 20:00N 34°49' W 028°59'0 0.1 1021.8 23.5
2014-Oct-12 18:00N 34°49' W 028°59'1 1.3 1021.6 23.5
2014-Oct-12 17:00N 34°51' W 028°59'1 0.5 1021.7 23.5
2014-Oct-12 16:00N 34°51' W 028°60'0 0.0 1022.2 23.5
2014-Oct-12 15:00N 34°51' W 028°60'0 0.0 1022.3 23.6
2014-Oct-12 14:00N 34°51' W 028°60'1 0.5 1023.0 23.5
2014-Oct-12 11:00N 34°51' W 029°01'1 0.2 1023.9 23.5
2014-Oct-12 07:00N 34°52' W 029°01'0 0.3 1023.7 23.5
2014-Oct-12 06:00N 34°52' W 029°01'0 0.1 1023.5 23.5
2014-Oct-12 05:00N 34°52' W 029°01'0 0.2 1023.4 23.5
2014-Oct-12 03:00N 34°53' W 029°01'2 0.5 1024.1 23.5
2014-Oct-12 00:00N 34°53' W 029°03'1 0.5 1025.1 23.5
2014-Oct-11 23:00N 34°53' W 029°02'1 1.1 1025.0 23.5
2014-Oct-11 22:00N 34°53' W 029°01'0 0.0 1025.1 23.5
2014-Oct-11 21:00N 34°53' W 029°01'1 1.1 1024.7 23.5
2014-Oct-11 20:00N 34°54' W 029°01'0 0.0 1024.4 23.5
2014-Oct-11 19:00N 34°54' W 029°01'1 0.9 1023.7 23.5
2014-Oct-11 18:00N 34°55' W 029°01'0 0.5 1023.6 23.6
2014-Oct-11 17:00N 34°55' W 029°01'0 0.0 1023.5 23.6
2014-Oct-11 16:00N 34°55' W 029°01'0 0.0 1023.7 23.6
2014-Oct-11 15:00N 34°55' W 029°01'1 0.5 1023.5 23.5
2014-Oct-11 13:00N 34°56' W 029°02'0 0.2 1024.1 23.5
2014-Oct-11 12:00N 34°55' W 029°02'0 0.0 1024.4 23.5
2014-Oct-11 11:00N 34°55' W 029°02'0 0.2 1024.2 23.5
2014-Oct-11 08:00N 34°55' W 029°03'1 1.1 1022.6 23.5
2014-Oct-11 07:00N 34°56' W 029°01'1 0.8 1022.1 23.5
2014-Oct-11 06:00N 34°56' W 029°01'0 0.1 1021.7 23.5
2014-Oct-11 05:00N 34°56' W 029°01'1 0.8 1021.4 23.5
2014-Oct-11 04:00N 34°57' W 029°01'2 0.3 1021.4 23.6
2014-Oct-10 22:00N 34°59' W 029°00'   1021.2 23.6
Track history (hours):
 
Tides and Currents Weather Stations Pressure Air Temp Water Temp Dewpoint Dewpoint Depression Visibility Wind Speed Wind Dir Waves Ship Positions

Drifting buoy 13570

Last reported at 2014-Oct-20 22:00 UTC. Time now 2014-Oct-21 00:44 UTC.
Position N 33°54' W 029°09'.

Barometer 1013.3 mb
Water temperature 22.4 ° C

Date/timePositionNaut miles runAvg speedWind from/ knotsBaromVisibWave heightAir tempDewpointWater temp
2014-Oct-20 22:00N 33°54' W 029°09'0 0.1 1013.3 22.4
2014-Oct-20 21:00N 33°54' W 029°09'2 2.0 1013.3 22.4
2014-Oct-20 20:00N 33°55' W 029°07'1 0.8 1013.5 22.4
2014-Oct-20 19:00N 33°56' W 029°08'0 0.0 1013.2 22.4
2014-Oct-20 18:00N 33°56' W 029°08'2 1.9 1013.5 22.4
2014-Oct-20 17:00N 33°57' W 029°06'1 1.2 1013.7 22.5
2014-Oct-20 16:00N 33°56' W 029°07'1 1.2 1013.9 22.5
2014-Oct-20 15:00N 33°57' W 029°06'0 0.2 1014.3 22.5
2014-Oct-20 13:00N 33°58' W 029°06'1 1.0 1015.8 22.5
2014-Oct-20 12:00N 33°58' W 029°05'1 0.8 1016.4 22.5
2014-Oct-20 11:00N 33°59' W 029°05'0 0.4 1016.7 22.5
2014-Oct-20 10:00N 33°58' W 029°04'0 0.0 1016.7 22.5
2014-Oct-20 09:00N 33°58' W 029°04'0 0.5 1016.8 22.5
2014-Oct-20 08:00N 33°58' W 029°04'1 0.7 1016.7 22.5
2014-Oct-20 07:00N 33°59' W 029°03'0 0.3 1016.7 22.5
2014-Oct-20 06:00N 33°59' W 029°03'0 0.2 1017.1 22.5
2014-Oct-20 05:00N 33°59' W 029°03'1 1.2 1017.1 22.5
2014-Oct-20 04:00N 33°59' W 029°01'3 0.8 1017.0 22.6
2014-Oct-20 00:00N 34°02' W 028°59'0 0.2 1018.9 22.6
2014-Oct-19 23:00N 34°02' W 028°59'1 1.1 1019.3 22.6
2014-Oct-19 22:00N 34°03' W 028°59'1 0.3 1019.4 22.6
2014-Oct-19 20:00N 34°03' W 028°58'0 0.5 1019.2 22.7
2014-Oct-19 19:00N 34°03' W 028°59'0 0.2 1019.1 22.7
2014-Oct-19 18:00N 34°03' W 028°59'0 0.0 1018.8 22.7
2014-Oct-19 17:00N 34°03' W 028°59'1 1.5 1018.8 22.7
2014-Oct-19 16:00N 34°03' W 028°57'0 0.2 1018.8 22.7
2014-Oct-19 15:00N 34°03' W 028°57'1 0.5 1019.0 22.7
2014-Oct-19 14:00N 34°04' W 028°56'0 0.2 1019.4 22.8
2014-Oct-19 13:00N 34°04' W 028°56'1 0.4 1019.9 22.7
2014-Oct-19 11:00N 34°04' W 028°55'0 0.3 1020.2 22.8
2014-Oct-19 10:00N 34°05' W 028°55'1 0.4 1020.1 22.8
2014-Oct-19 08:00N 34°05' W 028°54'1 0.5 1019.2 22.8
2014-Oct-19 07:00N 34°05' W 028°53'0 0.4 1018.7 22.8
2014-Oct-19 06:00N 34°05' W 028°53'2 0.8 1018.5 22.8
2014-Oct-19 04:00N 34°06' W 028°51'2 0.6 1018.3 22.8
2014-Oct-19 01:00N 34°08' W 028°51'0 0.0 1018.3 22.8
2014-Oct-19 00:00N 34°08' W 028°51'1 1.3 1018.5 22.8
2014-Oct-18 23:00N 34°09' W 028°51'1 1.1 1018.4 22.9
2014-Oct-18 22:00N 34°10' W 028°52'0 0.0 1018.0 22.9
2014-Oct-18 21:00N 34°10' W 028°52'2 0.8 1017.2 22.9
2014-Oct-18 19:00N 34°09' W 028°50'0 0.0 1015.7 22.9
2014-Oct-18 18:00N 34°09' W 028°50'0 0.0 1015.1 22.9
2014-Oct-18 16:00N 34°09' W 028°50'0 0.0 1014.7 22.9
2014-Oct-18 15:00N 34°09' W 028°50'1 1.0 1014.5 23.0
2014-Oct-18 14:00N 34°09' W 028°49'2 0.8 1014.3 23.0
2014-Oct-18 11:00N 34°11' W 028°47'0 0.0 1014.4 23.0
2014-Oct-18 10:00N 34°11' W 028°47'1 0.9 1014.2 23.0
2014-Oct-18 09:00N 34°12' W 028°47'1 1.3 1013.2 23.0
2014-Oct-18 08:00N 34°13' W 028°46'0 0.0 1012.5 23.0
2014-Oct-18 07:00N 34°13' W 028°46'2 1.6 1012.4 23.0
2014-Oct-18 06:00N 34°15' W 028°48'1 0.7 1012.1 23.0
2014-Oct-18 05:00N 34°15' W 028°47'2 0.3 1011.4 23.0
2014-Oct-17 23:00N 34°17' W 028°47'0 0.0 1012.3 23.1
2014-Oct-17 22:00N 34°17' W 028°47'0 0.1 1012.2 23.1
2014-Oct-17 21:00N 34°17' W 028°47'0 0.5 1011.9 23.1
2014-Oct-17 20:00N 34°17' W 028°48'0 0.2 1011.5 23.1
2014-Oct-17 18:00N 34°17' W 028°48'1 1.0 1010.8 23.1
2014-Oct-17 17:00N 34°17' W 028°47'0 0.0 1010.5 23.1
2014-Oct-17 16:00N 34°17' W 028°47'1 0.6 1010.2 23.1
2014-Oct-17 15:00N 34°17' W 028°46'2 0.7 1010.4 23.1
2014-Oct-17 12:00N 34°18' W 028°44'3 1.7 1011.3 23.1
2014-Oct-17 10:00N 34°22' W 028°45'0 0.2 1010.4 23.1
2014-Oct-17 08:00N 34°21' W 028°45'1 1.0 1009.0 23.1
2014-Oct-17 07:00N 34°22' W 028°46'2 2.0 1008.6 23.1
2014-Oct-17 06:00N 34°21' W 028°44'0 0.0 1008.3 23.1
2014-Oct-17 04:00N 34°21' W 028°44'3 1.5 1009.0 23.1
2014-Oct-17 02:00N 34°24' W 028°46'1 0.4 1010.1 23.2
2014-Oct-16 23:00N 34°24' W 028°47'2 0.5 1011.1 23.2
2014-Oct-16 19:00N 34°26' W 028°48'0 0.0 1011.5 23.2
2014-Oct-16 18:00N 34°26' W 028°48'1 0.7 1011.8 23.2
2014-Oct-16 17:00N 34°26' W 028°49'1 0.1 1012.0 23.2
2014-Oct-16 12:00N 34°27' W 028°49'1 0.9 1014.4 23.2
2014-Oct-16 11:00N 34°27' W 028°48'0 0.0 1014.3 23.2
2014-Oct-16 10:00N 34°27' W 028°48'1 1.3 1014.0 23.2
2014-Oct-16 09:00N 34°28' W 028°49'1 0.9 1013.2 23.2
2014-Oct-16 08:00N 34°29' W 028°49'0 0.0 1013.0 23.2
2014-Oct-16 07:00N 34°29' W 028°49'2 0.4 1012.5 23.2
2014-Oct-16 03:00N 34°30' W 028°50'1 0.3 1011.7 23.2
2014-Oct-15 22:00N 34°31' W 028°49'2 0.4 1010.5 23.3
2014-Oct-15 18:00N 34°33' W 028°48'0 0.1 1008.3 23.2
2014-Oct-15 16:00N 34°33' W 028°48'1 0.4 1008.2 23.2
2014-Oct-15 14:00N 34°32' W 028°49'1 0.4 1009.1 23.3
2014-Oct-15 12:00N 34°33' W 028°48'1 0.5 1010.7 23.3
2014-Oct-15 10:00N 34°34' W 028°48'0 0.0 1010.9 23.3
2014-Oct-15 09:00N 34°34' W 028°48'1 1.1 1010.7 23.4
2014-Oct-15 08:00N 34°34' W 028°46'1 0.6 1009.9 23.4
2014-Oct-15 07:00N 34°35' W 028°47'1 0.8 1009.6 23.3
2014-Oct-15 06:00N 34°36' W 028°48'1 0.3 1010.0 23.4
2014-Oct-15 03:00N 34°36' W 028°49'1 0.6 1010.8 23.4
2014-Oct-15 02:00N 34°36' W 028°49'0 0.0 1011.1 23.4
2014-Oct-15 00:00N 34°36' W 028°49'2 0.6 1012.0 23.4
2014-Oct-14 20:00N 34°38' W 028°48'0 0.0 1011.6 23.4
2014-Oct-14 18:00N 34°38' W 028°48'2 0.9 1011.1 23.4
2014-Oct-14 16:00N 34°38' W 028°50'1 0.3 1011.2 23.4
2014-Oct-14 12:00N 34°39' W 028°50'0 0.0 1013.3 23.4
2014-Oct-14 11:00N 34°39' W 028°50'1 1.0 1013.6 23.4
2014-Oct-14 10:00N 34°40' W 028°50'0 0.0 1013.4 23.4
2014-Oct-14 09:00N 34°40' W 028°50'2 0.5 1012.9 23.4
2014-Oct-14 06:00N 34°42' W 028°51'0 0.0 1013.0 23.4
2014-Oct-14 05:00N 34°42' W 028°51'3 1.5 1013.3 23.4
2014-Oct-14 03:00N 34°42' W 028°54'0 0.1 1014.2 23.4
2014-Oct-14 00:00N 34°42' W 028°54'1 1.0 1015.7 23.4
2014-Oct-13 23:00N 34°42' W 028°54'0 0.4 1016.1 23.4
2014-Oct-13 22:00N 34°42' W 028°54'2 0.5 1016.4 23.4
2014-Oct-13 17:00N 34°44' W 028°54'0 0.2 1016.0 23.5
2014-Oct-13 16:00N 34°44' W 028°54'1 1.3 1016.4 23.5
2014-Oct-13 15:00N 34°44' W 028°55'1 0.5 1016.8 23.4
2014-Oct-13 12:00N 34°45' W 028°56'0 0.3 1018.7 23.4
2014-Oct-13 11:00N 34°45' W 028°57'0 0.0 1019.1 23.4
2014-Oct-13 10:00N 34°45' W 028°57'1 0.7 1019.0 23.4
2014-Oct-13 08:00N 34°47' W 028°57'1 0.3 1018.7 23.4
2014-Oct-13 05:00N 34°48' W 028°57'2 1.0 1019.0 23.4
2014-Oct-13 03:00N 34°48' W 028°59'0 0.1 1020.3 23.4
2014-Oct-13 00:00N 34°48' W 028°59'1 1.1 1021.7 23.5
2014-Oct-12 23:00N 34°48' W 029°01'1 0.6 1021.9 23.5
2014-Oct-12 22:00N 34°48' W 029°00'1 1.4 1021.9 23.5
2014-Oct-12 21:00N 34°48' W 028°58'1 1.1 1022.0 23.5
2014-Oct-12 20:00N 34°49' W 028°59'0 0.1 1021.8 23.5
2014-Oct-12 18:00N 34°49' W 028°59'1 1.3 1021.6 23.5
2014-Oct-12 17:00N 34°51' W 028°59'1 0.5 1021.7 23.5
2014-Oct-12 16:00N 34°51' W 028°60'0 0.0 1022.2 23.5
2014-Oct-12 15:00N 34°51' W 028°60'0 0.0 1022.3 23.6
2014-Oct-12 14:00N 34°51' W 028°60'1 0.5 1023.0 23.5
2014-Oct-12 11:00N 34°51' W 029°01'1 0.2 1023.9 23.5
2014-Oct-12 07:00N 34°52' W 029°01'0 0.3 1023.7 23.5
2014-Oct-12 06:00N 34°52' W 029°01'0 0.1 1023.5 23.5
2014-Oct-12 05:00N 34°52' W 029°01'0 0.2 1023.4 23.5
2014-Oct-12 03:00N 34°53' W 029°01'2 0.5 1024.1 23.5
2014-Oct-12 00:00N 34°53' W 029°03'1 0.5 1025.1 23.5
2014-Oct-11 23:00N 34°53' W 029°02'1 1.1 1025.0 23.5
2014-Oct-11 22:00N 34°53' W 029°01'0 0.0 1025.1 23.5
2014-Oct-11 21:00N 34°53' W 029°01'1 1.1 1024.7 23.5
2014-Oct-11 20:00N 34°54' W 029°01'0 0.0 1024.4 23.5
2014-Oct-11 19:00N 34°54' W 029°01'1 0.9 1023.7 23.5
2014-Oct-11 18:00N 34°55' W 029°01'0 0.5 1023.6 23.6
2014-Oct-11 17:00N 34°55' W 029°01'0 0.0 1023.5 23.6
2014-Oct-11 16:00N 34°55' W 029°01'0 0.0 1023.7 23.6
2014-Oct-11 15:00N 34°55' W 029°01'1 0.5 1023.5 23.5
2014-Oct-11 13:00N 34°56' W 029°02'0 0.2 1024.1 23.5
2014-Oct-11 12:00N 34°55' W 029°02'0 0.0 1024.4 23.5
2014-Oct-11 11:00N 34°55' W 029°02'0 0.2 1024.2 23.5
2014-Oct-11 08:00N 34°55' W 029°03'1 1.1 1022.6 23.5
2014-Oct-11 07:00N 34°56' W 029°01'1 0.8 1022.1 23.5
2014-Oct-11 06:00N 34°56' W 029°01'0 0.1 1021.7 23.5
2014-Oct-11 05:00N 34°56' W 029°01'1 0.8 1021.4 23.5
2014-Oct-11 04:00N 34°57' W 029°01'2 0.3 1021.4 23.6
2014-Oct-10 22:00N 34°59' W 029°00'   1021.2 23.6

Dump ship's entire track history